Time;durP1;ratioP1;P1;durP2;ratioP2;P2;SDS_P1;SDS_P2;PMS_P1;PMS_P2;Temp;Humidity;BMP_temperature;BMP_pressure;BME280_temperature;BME280_humidity;BME280_pressure;Samples;Min_cycle;Max_cycle;Signal;HPM_P1;HPM_P2
2021/03/04 00:01:45;;;;;;;8.00;1.45;;;;;;;;;;5054095;28;20021;-57
2021/03/04 00:04:11;;;;;;;4.30;1.33;;;;;;;;;;5043025;28;20043;-54
2021/03/04 00:06:36;;;;;;;6.80;1.42;;;;;;;;;;5036796;28;20097;-57
2021/03/04 00:09:03;;;;;;;6.93;1.98;;;;;;;;;;5032154;28;20547;-57
2021/03/04 00:11:29;;;;;;;6.70;2.25;;;;;;;;;;5031492;28;20116;-58
2021/03/04 00:13:55;;;;;;;7.68;1.70;;;;;;;;;;5028632;28;20072;-57
2021/03/04 00:16:21;;;;;;;6.70;1.65;;;;;;;;;;5032271;28;20041;-55
2021/03/04 00:18:47;;;;;;;8.02;1.70;;;;;;;;;;5030315;28;20044;-56
2021/03/04 00:21:12;;;;;;;5.78;1.58;;;;;;;;;;5033217;28;20179;-56
2021/03/04 00:23:38;;;;;;;7.82;1.48;;;;;;;;;;5031803;28;20049;-57
2021/03/04 00:26:04;;;;;;;6.25;1.80;;;;;;;;;;5033351;28;20036;-56
2021/03/04 00:28:30;;;;;;;7.85;1.60;;;;;;;;;;5029646;28;20057;-56
2021/03/04 00:30:56;;;;;;;12.40;4.50;;;;;;;;;;5030053;28;20124;-56
2021/03/04 00:33:22;;;;;;;7.32;2.65;;;;;;;;;;5031212;28;20045;-56
2021/03/04 00:35:48;;;;;;;11.32;3.55;;;;;;;;;;5033091;28;20440;-56
2021/03/04 00:38:13;;;;;;;13.30;2.20;;;;;;;;;;5032739;28;20057;-57
2021/03/04 00:40:39;;;;;;;5.00;1.90;;;;;;;;;;5032427;28;20144;-57
2021/03/04 00:43:05;;;;;;;7.70;1.48;;;;;;;;;;5032609;28;20464;-56
2021/03/04 00:45:31;;;;;;;6.75;1.67;;;;;;;;;;5031608;28;20033;-58
2021/03/04 00:47:57;;;;;;;7.30;1.70;;;;;;;;;;5034043;28;20204;-56
2021/03/04 00:50:23;;;;;;;9.75;2.67;;;;;;;;;;5031287;28;20124;-58
2021/03/04 00:52:50;;;;;;;11.70;2.00;;;;;;;;;;5031260;28;20084;-58
2021/03/04 00:55:16;;;;;;;5.93;1.80;;;;;;;;;;5031852;28;20037;-57
2021/03/04 00:57:42;;;;;;;9.20;1.75;;;;;;;;;;5032427;28;20056;-57
2021/03/04 01:00:08;;;;;;;7.47;1.67;;;;;;;;;;5033833;28;20037;-55
2021/03/04 01:02:34;;;;;;;6.30;1.70;;;;;;;;;;5032828;28;20041;-58
2021/03/04 01:05:00;;;;;;;10.18;2.10;;;;;;;;;;5031250;28;20041;-57
2021/03/04 01:07:26;;;;;;;8.40;2.65;;;;;;;;;;5033563;28;20045;-58
2021/03/04 01:09:52;;;;;;;10.57;2.30;;;;;;;;;;5032040;28;20527;-57
2021/03/04 01:12:18;;;;;;;13.07;2.63;;;;;;;;;;5032189;28;20045;-56
2021/03/04 01:14:44;;;;;;;9.95;2.80;;;;;;;;;;5034663;28;20067;-56
2021/03/04 01:17:12;;;;;;;17.60;7.63;;;;;;;;;;5033332;28;20136;-56
2021/03/04 01:19:38;;;;;;;19.52;6.07;;;;;;;;;;5032050;28;20099;-57
2021/03/04 01:22:04;;;;;;;26.35;7.03;;;;;;;;;;5032025;28;20594;-57
2021/03/04 01:24:29;;;;;;;12.63;5.03;;;;;;;;;;5031179;28;20033;-57
2021/03/04 01:26:55;;;;;;;20.77;5.28;;;;;;;;;;5029725;28;20041;-56
2021/03/04 01:29:21;;;;;;;13.27;3.67;;;;;;;;;;5032660;28;20048;-58
2021/03/04 01:31:47;;;;;;;10.45;2.75;;;;;;;;;;5031134;28;20053;-57
2021/03/04 01:34:13;;;;;;;14.43;3.78;;;;;;;;;;5032135;28;20513;-57
2021/03/04 01:36:39;;;;;;;10.82;2.35;;;;;;;;;;5032160;28;20041;-55
2021/03/04 01:39:05;;;;;;;7.63;2.38;;;;;;;;;;5026645;28;20041;-59
2021/03/04 01:41:31;;;;;;;12.38;3.00;;;;;;;;;;5026423;28;20137;-58
2021/03/04 01:43:57;;;;;;;7.63;2.63;;;;;;;;;;5027165;28;20530;-58
2021/03/04 01:46:23;;;;;;;15.80;2.90;;;;;;;;;;5027599;28;20912;-58
2021/03/04 01:48:50;;;;;;;18.92;3.15;;;;;;;;;;5028724;28;20037;-58
2021/03/04 01:51:16;;;;;;;11.32;2.95;;;;;;;;;;5027934;28;20036;-57
2021/03/04 01:53:42;;;;;;;8.50;2.97;;;;;;;;;;5027623;28;20055;-58
2021/03/04 01:56:09;;;;;;;19.00;6.80;;;;;;;;;;5028881;28;20444;-57
2021/03/04 01:58:35;;;;;;;17.27;5.05;;;;;;;;;;5005790;28;20049;-57
2021/03/04 02:01:01;;;;;;;15.32;4.45;;;;;;;;;;5032294;28;20048;-58
2021/03/04 02:03:27;;;;;;;15.18;3.88;;;;;;;;;;5029854;28;20045;-58
2021/03/04 02:05:53;;;;;;;11.43;4.00;;;;;;;;;;5028296;28;20490;-59
2021/03/04 02:08:22;;;;;;;11.55;4.20;;;;;;;;;;5026810;28;20042;-58
2021/03/04 02:10:55;;;;;;;14.27;3.85;;;;;;;;;;5030095;28;20423;-57
2021/03/04 02:13:28;;;;;;;11.35;3.72;;;;;;;;;;5029591;28;20062;-57
2021/03/04 02:16:07;;;;;;;17.38;3.80;;;;;;;;;;5032451;28;20041;-58
2021/03/04 02:18:39;;;;;;;15.40;3.05;;;;;;;;;;5031134;28;20079;-58
2021/03/04 02:21:05;;;;;;;9.13;2.43;;;;;;;;;;5030312;28;20041;-59
2021/03/04 02:23:49;;;;;;;11.95;2.60;;;;;;;;;;5007101;28;20469;-59
2021/03/04 02:26:34;;;;;;;10.07;3.05;;;;;;;;;;5031228;28;20060;-58
2021/03/04 02:29:00;;;;;;;12.23;4.07;;;;;;;;;;5029288;28;20119;-59
2021/03/04 02:31:29;;;;;;;11.13;3.03;;;;;;;;;;5031959;28;20033;-58
2021/03/04 02:33:55;;;;;;;11.07;3.58;;;;;;;;;;5030950;28;20052;-57
2021/03/04 02:36:22;;;;;;;11.77;3.08;;;;;;;;;;5027700;28;20128;-59
2021/03/04 02:38:48;;;;;;;10.77;3.13;;;;;;;;;;5027967;28;20041;-58
2021/03/04 02:41:15;;;;;;;9.82;2.85;;;;;;;;;;5029241;28;20049;-58
2021/03/04 02:43:41;;;;;;;14.15;3.38;;;;;;;;;;5028831;28;20118;-58
2021/03/04 02:46:10;;;;;;;15.75;3.70;;;;;;;;;;5030567;28;20056;-57
2021/03/04 02:48:36;;;;;;;13.80;4.25;;;;;;;;;;5028054;28;20041;-55
2021/03/04 02:51:02;;;;;;;16.05;5.20;;;;;;;;;;5030422;28;20150;-56
2021/03/04 02:53:28;;;;;;;15.02;4.68;;;;;;;;;;5025791;28;20160;-58
2021/03/04 02:55:55;;;;;;;13.50;4.40;;;;;;;;;;5030376;28;20036;-57
2021/03/04 02:58:21;;;;;;;13.07;4.63;;;;;;;;;;5007920;28;20044;-56
2021/03/04 03:00:47;;;;;;;11.18;4.45;;;;;;;;;;5010893;28;20041;-58
2021/03/04 03:03:14;;;;;;;10.27;4.57;;;;;;;;;;5026916;28;20037;-56
2021/03/04 03:05:42;;;;;;;18.42;5.50;;;;;;;;;;5029604;28;21226;-55
2021/03/04 03:08:08;;;;;;;12.20;4.35;;;;;;;;;;5027744;28;20387;-59
2021/03/04 03:10:35;;;;;;;12.38;4.65;;;;;;;;;;5023697;28;20306;-58
2021/03/04 03:13:02;;;;;;;10.48;4.53;;;;;;;;;;5024764;28;20315;-56
2021/03/04 03:15:28;;;;;;;12.98;3.92;;;;;;;;;;5023122;28;20140;-59
2021/03/04 03:17:54;;;;;;;10.38;4.25;;;;;;;;;;5027201;28;20053;-56
2021/03/04 03:20:21;;;;;;;14.00;4.15;;;;;;;;;;5024526;28;20040;-58
2021/03/04 03:22:48;;;;;;;13.23;4.00;;;;;;;;;;5028602;28;20626;-58
2021/03/04 03:25:14;;;;;;;11.40;4.00;;;;;;;;;;5029704;28;20045;-57
2021/03/04 03:27:41;;;;;;;11.70;5.25;;;;;;;;;;5029117;28;20148;-57
2021/03/04 03:30:08;;;;;;;13.35;3.63;;;;;;;;;;5027291;28;20041;-56
2021/03/04 03:32:34;;;;;;;16.55;3.83;;;;;;;;;;5025674;28;20089;-56
2021/03/04 03:35:01;;;;;;;7.38;3.80;;;;;;;;;;5026070;28;20163;-58
2021/03/04 03:37:29;;;;;;;12.43;3.63;;;;;;;;;;5022839;28;20079;-55
2021/03/04 03:39:55;;;;;;;8.52;3.83;;;;;;;;;;5028021;28;20682;-58
2021/03/04 03:42:23;;;;;;;11.75;3.88;;;;;;;;;;5027382;28;20053;-58
2021/03/04 03:44:50;;;;;;;13.15;4.03;;;;;;;;;;5028146;28;20102;-57
2021/03/04 03:47:16;;;;;;;12.32;5.00;;;;;;;;;;5029739;28;20093;-57
2021/03/04 03:49:43;;;;;;;15.52;4.65;;;;;;;;;;5028250;28;20053;-55
2021/03/04 03:52:09;;;;;;;9.07;4.28;;;;;;;;;;5030143;28;20033;-55
2021/03/04 03:54:37;;;;;;;19.23;5.30;;;;;;;;;;5026070;28;20048;-58
2021/03/04 03:57:04;;;;;;;11.52;4.07;;;;;;;;;;5028041;28;20049;-59
2021/03/04 03:59:31;;;;;;;10.80;4.35;;;;;;;;;;5027243;28;20045;-58
2021/03/04 04:01:57;;;;;;;13.63;4.93;;;;;;;;;;5019730;28;20047;-60
2021/03/04 04:04:23;;;;;;;19.38;5.45;;;;;;;;;;5006593;28;20056;-58
2021/03/04 04:06:50;;;;;;;21.75;6.00;;;;;;;;;;5008182;28;20128;-58
2021/03/04 04:09:16;;;;;;;18.65;5.72;;;;;;;;;;5026493;28;20134;-58
2021/03/04 04:11:42;;;;;;;22.00;5.82;;;;;;;;;;5025447;28;20052;-56
2021/03/04 04:14:08;;;;;;;20.50;5.95;;;;;;;;;;5029498;28;20053;-59
2021/03/04 04:16:35;;;;;;;14.80;5.18;;;;;;;;;;5029596;28;20236;-56
2021/03/04 04:19:03;;;;;;;17.13;5.53;;;;;;;;;;5030009;28;20037;-57
2021/03/04 04:21:30;;;;;;;19.75;5.95;;;;;;;;;;5030702;28;20059;-57
2021/03/04 04:23:57;;;;;;;21.73;6.25;;;;;;;;;;5028162;28;20164;-57
2021/03/04 04:26:23;;;;;;;16.90;6.75;;;;;;;;;;5007793;28;20033;-54
2021/03/04 04:28:49;;;;;;;18.17;6.97;;;;;;;;;;5029557;28;20840;-56
2021/03/04 04:31:15;;;;;;;12.00;5.93;;;;;;;;;;5028224;28;21529;-57
2021/03/04 04:33:41;;;;;;;13.57;5.35;;;;;;;;;;5027657;28;20049;-52
2021/03/04 04:36:07;;;;;;;17.52;5.82;;;;;;;;;;5028683;28;20126;-57
2021/03/04 04:38:33;;;;;;;17.10;6.07;;;;;;;;;;5029823;28;20409;-57
2021/03/04 04:40:59;;;;;;;15.93;6.85;;;;;;;;;;5019699;28;20112;-58
2021/03/04 04:43:25;;;;;;;12.93;5.28;;;;;;;;;;5028778;28;20520;-58
2021/03/04 04:45:51;;;;;;;15.82;4.30;;;;;;;;;;5029003;28;20052;-57
2021/03/04 04:48:17;;;;;;;16.48;5.03;;;;;;;;;;5031267;28;20089;-57
2021/03/04 04:50:43;;;;;;;15.25;4.82;;;;;;;;;;5006173;28;21987;-55
2021/03/04 04:53:10;;;;;;;14.10;4.53;;;;;;;;;;5026651;28;20138;-55
2021/03/04 04:55:35;;;;;;;10.18;4.05;;;;;;;;;;5027138;28;20040;-57
2021/03/04 04:58:02;;;;;;;12.52;3.78;;;;;;;;;;5028207;28;20041;-58
2021/03/04 05:00:28;;;;;;;12.57;4.35;;;;;;;;;;5028014;28;20120;-56
2021/03/04 05:02:54;;;;;;;11.75;4.10;;;;;;;;;;5028096;28;20040;-57
2021/03/04 05:05:20;;;;;;;11.95;4.93;;;;;;;;;;5027478;28;20037;-58
2021/03/04 05:07:45;;;;;;;13.80;4.28;;;;;;;;;;5028226;28;20346;-58
2021/03/04 05:10:12;;;;;;;17.20;4.00;;;;;;;;;;5028694;28;20472;-58
2021/03/04 05:12:38;;;;;;;14.30;4.75;;;;;;;;;;5027572;28;20056;-58
2021/03/04 05:15:05;;;;;;;10.95;3.88;;;;;;;;;;5028463;28;20049;-57
2021/03/04 05:17:31;;;;;;;12.00;3.90;;;;;;;;;;5028205;28;20131;-56
2021/03/04 05:19:57;;;;;;;14.23;5.55;;;;;;;;;;5030180;28;20113;-57
2021/03/04 05:22:23;;;;;;;11.27;3.58;;;;;;;;;;5029343;28;20108;-57
2021/03/04 05:24:49;;;;;;;11.45;3.60;;;;;;;;;;5014522;28;20090;-56
2021/03/04 05:27:15;;;;;;;8.35;3.30;;;;;;;;;;5029330;28;20044;-58
2021/03/04 05:29:40;;;;;;;11.35;2.60;;;;;;;;;;5030038;28;20037;-57
2021/03/04 05:32:07;;;;;;;13.98;3.22;;;;;;;;;;5031007;28;20049;-56
2021/03/04 05:34:33;;;;;;;16.77;3.60;;;;;;;;;;5032916;28;20065;-56
2021/03/04 05:37:01;;;;;;;10.00;2.88;;;;;;;;;;5032641;28;20029;-57
2021/03/04 05:39:26;;;;;;;8.68;3.10;;;;;;;;;;5028026;28;20150;-58
2021/03/04 05:41:54;;;;;;;12.68;3.22;;;;;;;;;;5028527;28;20559;-57
2021/03/04 05:44:23;;;;;;;12.15;3.00;;;;;;;;;;5033362;28;20124;-58
2021/03/04 05:46:53;;;;;;;10.02;3.05;;;;;;;;;;5034347;28;20172;-58
2021/03/04 05:49:19;;;;;;;10.32;3.10;;;;;;;;;;5029166;28;20054;-58
2021/03/04 05:51:48;;;;;;;11.68;3.05;;;;;;;;;;5016396;28;20034;-56
2021/03/04 05:54:15;;;;;;;10.10;3.10;;;;;;;;;;5016981;28;20422;-58
2021/03/04 05:56:42;;;;;;;6.00;2.60;;;;;;;;;;5014448;28;20138;-59
2021/03/04 05:59:08;;;;;;;10.85;2.85;;;;;;;;;;5017057;28;22396;-58
2021/03/04 06:01:34;;;;;;;6.68;2.75;;;;;;;;;;5005956;28;20041;-55
2021/03/04 06:04:01;;;;;;;12.65;3.25;;;;;;;;;;5014894;28;20541;-57
2021/03/04 06:06:26;;;;;;;9.77;3.00;;;;;;;;;;4996771;28;20045;-59
2021/03/04 06:08:52;;;;;;;9.18;2.90;;;;;;;;;;5014027;28;20045;-58
2021/03/04 06:11:18;;;;;;;10.50;2.75;;;;;;;;;;5013558;28;20124;-58
2021/03/04 06:13:45;;;;;;;15.15;4.32;;;;;;;;;;5016856;28;20049;-57
2021/03/04 06:16:10;;;;;;;12.25;4.72;;;;;;;;;;5015522;28;20152;-57
2021/03/04 06:18:43;;;;;;;9.82;3.30;;;;;;;;;;5013784;28;20094;-58
2021/03/04 06:21:18;;;;;;;10.30;4.75;;;;;;;;;;5013924;28;20041;-57
2021/03/04 06:23:44;;;;;;;10.45;3.60;;;;;;;;;;5012801;28;20050;-56
2021/03/04 06:26:10;;;;;;;10.98;4.10;;;;;;;;;;5015321;28;20029;-57
2021/03/04 06:28:36;;;;;;;11.93;3.83;;;;;;;;;;5011614;28;20045;-57
2021/03/04 06:31:02;;;;;;;11.77;3.67;;;;;;;;;;5013087;28;20064;-57
2021/03/04 06:33:34;;;;;;;9.15;3.63;;;;;;;;;;5013773;28;20171;-56
2021/03/04 06:36:10;;;;;;;10.30;3.03;;;;;;;;;;5012175;28;20250;-56
2021/03/04 06:38:36;;;;;;;9.32;3.60;;;;;;;;;;5013147;28;20290;-57
2021/03/04 06:41:02;;;;;;;13.07;3.92;;;;;;;;;;4992136;28;20127;-58
2021/03/04 06:43:28;;;;;;;11.13;4.20;;;;;;;;;;5013974;28;21738;-58
2021/03/04 06:46:03;;;;;;;16.20;4.28;;;;;;;;;;5012446;28;20161;-54
2021/03/04 06:48:29;;;;;;;11.13;4.07;;;;;;;;;;5013151;28;20092;-58
2021/03/04 06:50:59;;;;;;;14.32;3.90;;;;;;;;;;5015282;28;20057;-57
2021/03/04 06:53:25;;;;;;;14.00;4.43;;;;;;;;;;5012389;28;20072;-57
2021/03/04 06:55:56;;;;;;;13.43;4.53;;;;;;;;;;5012295;28;20095;-60
2021/03/04 06:58:29;;;;;;;10.70;3.63;;;;;;;;;;5012700;28;20371;-58
2021/03/04 07:01:13;;;;;;;12.07;3.40;;;;;;;;;;5014152;28;20117;-58
2021/03/04 07:03:39;;;;;;;19.63;3.92;;;;;;;;;;5011556;28;20129;-56
2021/03/04 07:06:05;;;;;;;9.95;3.40;;;;;;;;;;5012716;28;20037;-59
2021/03/04 07:08:33;;;;;;;12.70;4.00;;;;;;;;;;5012245;28;20042;-58
2021/03/04 07:11:01;;;;;;;12.52;3.78;;;;;;;;;;5011343;28;20069;-58
2021/03/04 07:13:27;;;;;;;14.32;3.60;;;;;;;;;;5007992;28;20071;-59
2021/03/04 07:15:53;;;;;;;10.65;3.30;;;;;;;;;;5012058;28;20046;-59
2021/03/04 07:18:19;;;;;;;11.52;3.10;;;;;;;;;;5010610;28;20987;-59
2021/03/04 07:20:45;;;;;;;9.98;3.55;;;;;;;;;;5013853;28;20041;-58
2021/03/04 07:23:11;;;;;;;10.15;3.25;;;;;;;;;;5012838;28;20121;-57
2021/03/04 07:25:38;;;;;;;9.00;3.08;;;;;;;;;;5012069;28;20609;-57
2021/03/04 07:28:04;;;;;;;10.52;3.47;;;;;;;;;;5014708;28;20068;-55
2021/03/04 07:30:30;;;;;;;14.25;3.80;;;;;;;;;;5013398;28;20037;-55
2021/03/04 07:32:56;;;;;;;12.43;3.20;;;;;;;;;;5011335;28;20046;-57
2021/03/04 07:35:22;;;;;;;10.25;3.40;;;;;;;;;;5009527;28;20123;-56
2021/03/04 07:37:48;;;;;;;11.25;3.83;;;;;;;;;;4991563;28;20060;-58
2021/03/04 07:40:15;;;;;;;14.50;3.55;;;;;;;;;;5013253;28;20040;-59
2021/03/04 07:42:40;;;;;;;13.65;4.00;;;;;;;;;;5012622;28;22639;-59
2021/03/04 07:45:24;;;;;;;12.20;3.88;;;;;;;;;;5013072;28;20038;-59
2021/03/04 07:47:50;;;;;;;8.48;3.60;;;;;;;;;;5013496;28;20049;-59
2021/03/04 07:50:17;;;;;;;10.98;3.78;;;;;;;;;;5023559;28;20128;-57
2021/03/04 07:52:43;;;;;;;13.18;3.90;;;;;;;;;;5031664;28;20128;-59
2021/03/04 07:55:13;;;;;;;9.10;2.97;;;;;;;;;;5032775;28;20037;-58
2021/03/04 07:57:43;;;;;;;11.73;3.00;;;;;;;;;;5033870;28;20120;-59
2021/03/04 08:00:09;;;;;;;7.22;2.88;;;;;;;;;;5032452;28;20124;-59
2021/03/04 08:02:37;;;;;;;13.00;3.55;;;;;;;;;;5032837;28;20083;-59
2021/03/04 08:05:09;;;;;;;10.27;2.92;;;;;;;;;;5033741;28;20039;-58
2021/03/04 08:07:35;;;;;;;7.53;2.50;;;;;;;;;;5032831;28;20148;-58
2021/03/04 08:10:20;;;;;;;6.80;2.20;;;;;;;;;;5033855;28;21003;-57
2021/03/04 08:12:51;;;;;;;11.27;2.58;;;;;;;;;;5032775;28;20128;-59
2021/03/04 08:15:17;;;;;;;6.00;2.30;;;;;;;;;;5033250;28;20033;-58
2021/03/04 08:17:44;;;;;;;7.97;2.30;;;;;;;;;;5032933;28;20085;-58
2021/03/04 08:20:15;;;;;;;5.55;2.33;;;;;;;;;;5033539;28;21173;-58
2021/03/04 08:22:48;;;;;;;4.97;2.40;;;;;;;;;;5028450;28;20041;-58
2021/03/04 08:25:24;;;;;;;7.43;2.30;;;;;;;;;;5032873;28;20603;-57
2021/03/04 08:27:51;;;;;;;6.30;2.25;;;;;;;;;;5033969;28;20048;-57
2021/03/04 08:30:37;;;;;;;6.68;3.05;;;;;;;;;;5033545;28;20466;-59
2021/03/04 08:33:07;;;;;;;6.70;2.25;;;;;;;;;;5030555;28;20049;-59
2021/03/04 08:35:37;;;;;;;7.57;2.55;;;;;;;;;;5032652;28;20037;-58
2021/03/04 08:38:07;;;;;;;5.63;2.33;;;;;;;;;;5033114;28;20795;-59
2021/03/04 08:40:39;;;;;;;5.65;2.15;;;;;;;;;;5030949;28;20055;-59
2021/03/04 08:43:09;;;;;;;6.22;2.00;;;;;;;;;;5026278;28;20048;-56
2021/03/04 08:45:35;;;;;;;10.07;2.10;;;;;;;;;;5032041;28;20765;-58
2021/03/04 08:48:03;;;;;;;7.10;2.60;;;;;;;;;;5035618;28;20040;-58
2021/03/04 08:50:35;;;;;;;6.68;2.92;;;;;;;;;;5033762;28;20091;-56
2021/03/04 08:53:01;;;;;;;7.78;2.65;;;;;;;;;;5026034;28;20055;-58
2021/03/04 08:55:27;;;;;;;8.20;2.85;;;;;;;;;;5014057;28;20624;-58
2021/03/04 08:58:04;;;;;;;5.70;2.20;;;;;;;;;;5035082;28;20041;-56
2021/03/04 09:00:30;;;;;;;5.57;2.15;;;;;;;;;;5032821;28;20662;-58
2021/03/04 09:03:05;;;;;;;10.57;2.20;;;;;;;;;;5033562;28;20036;-59
2021/03/04 09:05:31;;;;;;;8.55;2.38;;;;;;;;;;5033829;28;20398;-58
2021/03/04 09:07:57;;;;;;;12.50;2.58;;;;;;;;;;5034155;28;20758;-55
2021/03/04 09:10:23;;;;;;;6.18;1.95;;;;;;;;;;5031353;28;20033;-58
2021/03/04 09:12:48;;;;;;;8.20;2.65;;;;;;;;;;5033227;28;20056;-56
2021/03/04 09:15:17;;;;;;;8.35;2.40;;;;;;;;;;5032425;28;20029;-58
2021/03/04 09:17:43;;;;;;;6.65;2.58;;;;;;;;;;5033328;28;20045;-57
2021/03/04 09:20:10;;;;;;;7.55;2.55;;;;;;;;;;5035214;28;20040;-58
2021/03/04 09:22:38;;;;;;;5.22;2.30;;;;;;;;;;5035727;28;20029;-58
2021/03/04 09:25:05;;;;;;;5.13;2.17;;;;;;;;;;5036347;28;20041;-58
2021/03/04 09:27:31;;;;;;;5.90;2.35;;;;;;;;;;5035286;28;20156;-57
2021/03/04 09:29:57;;;;;;;9.43;2.20;;;;;;;;;;5035325;28;20037;-59
2021/03/04 09:32:33;;;;;;;5.65;2.25;;;;;;;;;;5036444;28;20045;-58
2021/03/04 09:34:59;;;;;;;7.22;2.60;;;;;;;;;;5034057;28;20045;-59
2021/03/04 09:37:26;;;;;;;9.73;2.60;;;;;;;;;;5034500;28;20042;-59
2021/03/04 09:39:53;;;;;;;8.82;2.47;;;;;;;;;;5036744;28;20072;-59
2021/03/04 09:42:33;;;;;;;9.27;2.67;;;;;;;;;;5034360;28;20037;-57
2021/03/04 09:45:04;;;;;;;5.57;2.22;;;;;;;;;;5035224;28;22014;-59
2021/03/04 09:47:31;;;;;;;9.15;2.38;;;;;;;;;;5037160;28;20082;-59
2021/03/04 09:49:57;;;;;;;7.78;2.50;;;;;;;;;;5036427;28;20084;-59
2021/03/04 09:52:24;;;;;;;8.25;2.45;;;;;;;;;;5035024;28;20045;-58
2021/03/04 09:54:50;;;;;;;8.48;2.13;;;;;;;;;;5019356;28;20033;-58
2021/03/04 09:57:20;;;;;;;6.90;2.00;;;;;;;;;;5035997;28;20033;-59
2021/03/04 09:59:50;;;;;;;8.70;2.40;;;;;;;;;;5034557;28;20401;-58
2021/03/04 10:02:17;;;;;;;7.28;2.92;;;;;;;;;;5036080;28;20025;-58
2021/03/04 10:04:55;;;;;;;6.18;2.35;;;;;;;;;;5036044;28;20045;-58
2021/03/04 10:07:22;;;;;;;5.75;2.33;;;;;;;;;;5034771;28;20041;-58
2021/03/04 10:09:48;;;;;;;7.63;2.20;;;;;;;;;;5035003;28;20035;-59
2021/03/04 10:12:14;;;;;;;6.28;2.35;;;;;;;;;;5035677;28;20088;-58
2021/03/04 10:14:46;;;;;;;7.75;2.53;;;;;;;;;;5033274;28;20778;-58
2021/03/04 10:17:13;;;;;;;7.75;2.40;;;;;;;;;;5035447;28;20382;-58
2021/03/04 10:19:39;;;;;;;6.93;2.22;;;;;;;;;;5035856;28;20029;-59
2021/03/04 10:22:05;;;;;;;7.13;2.08;;;;;;;;;;5035362;28;20164;-59
2021/03/04 10:24:31;;;;;;;5.50;2.17;;;;;;;;;;5036111;28;20124;-59
2021/03/04 10:26:58;;;;;;;6.75;2.08;;;;;;;;;;5038984;28;20112;-59
2021/03/04 10:29:25;;;;;;;4.35;1.85;;;;;;;;;;5036848;28;20106;-59
2021/03/04 10:31:51;;;;;;;11.65;2.17;;;;;;;;;;5034981;28;20069;-59
2021/03/04 10:34:17;;;;;;;5.90;1.83;;;;;;;;;;5033764;28;20129;-59
2021/03/04 10:36:43;;;;;;;8.00;2.40;;;;;;;;;;5035108;28;20076;-58
2021/03/04 10:39:09;;;;;;;7.80;2.47;;;;;;;;;;5035371;28;20420;-56
2021/03/04 10:41:35;;;;;;;7.88;2.30;;;;;;;;;;5032379;28;20052;-57
2021/03/04 10:44:01;;;;;;;10.18;2.13;;;;;;;;;;5034216;28;20040;-59
2021/03/04 10:46:30;;;;;;;8.88;2.00;;;;;;;;;;5033849;28;20136;-57
2021/03/04 10:48:55;;;;;;;7.05;2.60;;;;;;;;;;5035516;28;20032;-60
2021/03/04 10:51:21;;;;;;;6.93;2.58;;;;;;;;;;5033480;28;20620;-58
2021/03/04 10:53:47;;;;;;;5.07;2.15;;;;;;;;;;5035006;28;20405;-58
2021/03/04 10:56:13;;;;;;;5.90;2.05;;;;;;;;;;5035068;28;20175;-58
2021/03/04 10:58:39;;;;;;;7.55;2.30;;;;;;;;;;5028689;28;20045;-60
2021/03/04 11:01:05;;;;;;;8.10;2.42;;;;;;;;;;5035549;28;20106;-59
2021/03/04 11:03:31;;;;;;;6.45;2.28;;;;;;;;;;5035475;28;20069;-58
2021/03/04 11:05:56;;;;;;;5.80;2.65;;;;;;;;;;5036487;28;20116;-59
2021/03/04 11:08:22;;;;;;;5.22;2.30;;;;;;;;;;5034050;28;20029;-56
2021/03/04 11:10:48;;;;;;;5.95;2.17;;;;;;;;;;5032971;28;20186;-59
2021/03/04 11:13:16;;;;;;;6.55;2.58;;;;;;;;;;5034514;28;20041;-58
2021/03/04 11:15:42;;;;;;;5.68;2.33;;;;;;;;;;5033290;28;20083;-58
2021/03/04 11:18:09;;;;;;;6.60;2.30;;;;;;;;;;5034433;28;20162;-60
2021/03/04 11:20:35;;;;;;;9.68;2.22;;;;;;;;;;5034591;28;20036;-59
2021/03/04 11:23:00;;;;;;;6.63;2.83;;;;;;;;;;5032633;28;20041;-59
2021/03/04 11:25:26;;;;;;;6.97;2.50;;;;;;;;;;5033311;28;20040;-59
2021/03/04 11:27:52;;;;;;;4.93;2.10;;;;;;;;;;5033857;28;20073;-57
2021/03/04 11:30:18;;;;;;;9.15;2.20;;;;;;;;;;5032949;28;20175;-59
2021/03/04 11:32:44;;;;;;;6.55;2.35;;;;;;;;;;5032777;28;20860;-57
2021/03/04 11:35:10;;;;;;;7.10;2.28;;;;;;;;;;5032850;28;20037;-57
2021/03/04 11:37:36;;;;;;;5.93;2.20;;;;;;;;;;5033288;28;20066;-58
2021/03/04 11:40:03;;;;;;;8.88;2.67;;;;;;;;;;5033358;28;20451;-55
2021/03/04 11:42:29;;;;;;;7.78;2.25;;;;;;;;;;5032666;28;20039;-57
2021/03/04 11:44:55;;;;;;;7.70;2.33;;;;;;;;;;5034716;28;20044;-59
2021/03/04 11:47:21;;;;;;;10.13;2.60;;;;;;;;;;5012912;28;20056;-56
2021/03/04 11:49:47;;;;;;;6.78;2.50;;;;;;;;;;5027754;28;20124;-58
2021/03/04 11:52:13;;;;;;;7.72;2.70;;;;;;;;;;5018364;28;20045;-59
2021/03/04 11:54:39;;;;;;;7.25;2.50;;;;;;;;;;5016773;28;20045;-59
2021/03/04 11:57:05;;;;;;;5.65;2.50;;;;;;;;;;5020756;28;20045;-59
2021/03/04 11:59:31;;;;;;;4.97;2.15;;;;;;;;;;5016213;28;20048;-58
2021/03/04 12:01:56;;;;;;;5.22;2.20;;;;;;;;;;5017312;28;20383;-57
2021/03/04 12:04:23;;;;;;;7.65;2.25;;;;;;;;;;5016322;28;20135;-59
2021/03/04 12:06:48;;;;;;;7.28;2.70;;;;;;;;;;5016850;28;20475;-58
2021/03/04 12:09:14;;;;;;;6.68;2.03;;;;;;;;;;5016275;28;20129;-57
2021/03/04 12:11:40;;;;;;;7.15;2.50;;;;;;;;;;5015726;28;20499;-57
2021/03/04 12:14:06;;;;;;;6.03;2.65;;;;;;;;;;5017697;28;20041;-57
2021/03/04 12:16:32;;;;;;;6.90;2.80;;;;;;;;;;5016390;28;20097;-57
2021/03/04 12:18:58;;;;;;;7.07;2.50;;;;;;;;;;5017898;28;20860;-57
2021/03/04 12:21:24;;;;;;;5.03;2.17;;;;;;;;;;5017950;28;20053;-58
2021/03/04 12:23:50;;;;;;;6.88;2.55;;;;;;;;;;5017776;28;20037;-59
2021/03/04 12:26:16;;;;;;;8.10;2.30;;;;;;;;;;4998915;28;20048;-59
2021/03/04 12:28:41;;;;;;;7.63;2.40;;;;;;;;;;5016848;28;20417;-56
2021/03/04 12:31:07;;;;;;;7.50;2.38;;;;;;;;;;5017263;28;20068;-57
2021/03/04 12:33:33;;;;;;;5.93;2.70;;;;;;;;;;5016438;28;20053;-57
2021/03/04 12:35:59;;;;;;;8.57;2.60;;;;;;;;;;5017772;28;20390;-57
2021/03/04 12:38:25;;;;;;;8.23;2.67;;;;;;;;;;5015941;28;20612;-55
2021/03/04 12:40:51;;;;;;;9.40;2.92;;;;;;;;;;5016007;28;20044;-59
2021/03/04 12:43:17;;;;;;;7.65;2.95;;;;;;;;;;5018186;28;20499;-59
2021/03/04 12:45:43;;;;;;;7.50;2.78;;;;;;;;;;5018133;28;21863;-58
2021/03/04 12:48:09;;;;;;;6.07;2.58;;;;;;;;;;5017964;28;20521;-57
2021/03/04 12:50:35;;;;;;;6.80;2.65;;;;;;;;;;5027556;28;20049;-59
2021/03/04 12:53:01;;;;;;;8.23;2.88;;;;;;;;;;5031270;28;20048;-59
2021/03/04 12:55:27;;;;;;;7.30;2.70;;;;;;;;;;5032491;28;20041;-59
2021/03/04 12:57:53;;;;;;;8.32;2.40;;;;;;;;;;5033116;28;20068;-58
2021/03/04 13:00:19;;;;;;;8.68;2.70;;;;;;;;;;5033090;28;20386;-59
2021/03/04 13:02:45;;;;;;;6.05;2.70;;;;;;;;;;5032558;28;20059;-57
2021/03/04 13:05:11;;;;;;;7.82;3.00;;;;;;;;;;5032770;28;20044;-58
2021/03/04 13:07:37;;;;;;;6.22;2.63;;;;;;;;;;5031556;28;20369;-60
2021/03/04 13:10:04;;;;;;;8.55;2.67;;;;;;;;;;5031568;28;20040;-59
2021/03/04 13:12:29;;;;;;;7.32;2.28;;;;;;;;;;5031766;28;20080;-58
2021/03/04 13:14:55;;;;;;;6.50;2.60;;;;;;;;;;5033634;28;20148;-59
2021/03/04 13:17:21;;;;;;;9.02;2.67;;;;;;;;;;5031109;28;20048;-59
2021/03/04 13:19:47;;;;;;;9.50;3.47;;;;;;;;;;5030983;28;20037;-59
2021/03/04 13:22:13;;;;;;;7.03;2.58;;;;;;;;;;5031626;28;20136;-57
2021/03/04 13:24:39;;;;;;;7.72;2.53;;;;;;;;;;5030678;28;20041;-57
2021/03/04 13:27:05;;;;;;;7.00;2.67;;;;;;;;;;5032189;28;20052;-58
2021/03/04 13:29:31;;;;;;;5.95;2.47;;;;;;;;;;5032023;28;20130;-58
2021/03/04 13:31:57;;;;;;;10.05;2.83;;;;;;;;;;5031159;28;20519;-56
2021/03/04 13:34:24;;;;;;;13.93;2.95;;;;;;;;;;5030132;28;20041;-56
2021/03/04 13:36:50;;;;;;;6.50;2.45;;;;;;;;;;5032002;28;20048;-57
2021/03/04 13:39:16;;;;;;;7.22;3.05;;;;;;;;;;5031600;28;20052;-57
2021/03/04 13:41:41;;;;;;;7.18;2.72;;;;;;;;;;5030044;28;20057;-56
2021/03/04 13:44:07;;;;;;;9.15;2.90;;;;;;;;;;5031496;28;20045;-58
2021/03/04 13:46:33;;;;;;;8.02;2.70;;;;;;;;;;5032412;28;20033;-58
2021/03/04 13:48:59;;;;;;;10.82;3.40;;;;;;;;;;5032278;28;20382;-58
2021/03/04 13:51:25;;;;;;;10.00;3.22;;;;;;;;;;5031436;28;21964;-56
2021/03/04 13:53:51;;;;;;;12.88;2.97;;;;;;;;;;5032245;28;20045;-57
2021/03/04 13:56:17;;;;;;;11.40;4.03;;;;;;;;;;5033100;28;20037;-58
2021/03/04 13:58:43;;;;;;;7.97;3.65;;;;;;;;;;5032135;28;20049;-54
2021/03/04 14:01:09;;;;;;;8.48;3.33;;;;;;;;;;5030108;28;20037;-57
2021/03/04 14:03:36;;;;;;;7.95;2.72;;;;;;;;;;5030969;28;20120;-57
2021/03/04 14:06:03;;;;;;;7.97;3.03;;;;;;;;;;5035513;28;20073;-56
2021/03/04 14:08:30;;;;;;;8.18;2.47;;;;;;;;;;5036013;28;20038;-56
2021/03/04 14:10:56;;;;;;;8.68;2.67;;;;;;;;;;5036000;28;20176;-54
2021/03/04 14:13:22;;;;;;;11.82;3.17;;;;;;;;;;5032762;28;20048;-55
2021/03/04 14:15:48;;;;;;;10.98;3.22;;;;;;;;;;5036289;28;20171;-57
2021/03/04 14:18:14;;;;;;;8.38;3.00;;;;;;;;;;5035238;28;20873;-58
2021/03/04 14:20:40;;;;;;;11.88;3.28;;;;;;;;;;5033588;28;20065;-53
2021/03/04 14:23:06;;;;;;;8.32;2.72;;;;;;;;;;5035876;28;20045;-55
2021/03/04 14:25:32;;;;;;;11.65;3.38;;;;;;;;;;5035545;28;20129;-54
2021/03/04 14:27:58;;;;;;;7.30;3.00;;;;;;;;;;5035854;28;20045;-56
2021/03/04 14:30:24;;;;;;;13.05;3.42;;;;;;;;;;5032947;28;20103;-54
2021/03/04 14:32:49;;;;;;;8.32;3.08;;;;;;;;;;5036404;28;20041;-58
2021/03/04 14:35:15;;;;;;;10.35;3.10;;;;;;;;;;5034902;28;20043;-57